createdAt,value
2017-07-09T00:00:00.886Z,936.59
2017-07-09T00:00:14.308Z,936.59
2017-07-09T00:00:27.832Z,936.6
2017-07-09T00:00:41.276Z,936.59
2017-07-09T00:00:54.768Z,936.6
2017-07-09T00:01:07.683Z,936.61
2017-07-09T00:01:20.045Z,936.59
2017-07-09T00:01:32.978Z,936.6
2017-07-09T00:01:46.551Z,936.61
2017-07-09T00:02:00.063Z,936.62
2017-07-09T00:02:12.944Z,936.58
2017-07-09T00:02:25.855Z,936.58
2017-07-09T00:02:39.395Z,936.6
2017-07-09T00:02:52.369Z,936.6
2017-07-09T00:03:05.295Z,936.56
2017-07-09T00:03:18.805Z,936.58
2017-07-09T00:03:32.257Z,936.59
2017-07-09T00:03:45.440Z,936.6
2017-07-09T00:03:58.953Z,936.62
2017-07-09T00:04:11.875Z,936.59
2017-07-09T00:04:25.371Z,936.61
2017-07-09T00:04:38.298Z,936.63
2017-07-09T00:04:51.719Z,936.59
2017-07-09T00:05:05.211Z,936.58
2017-07-09T00:05:18.120Z,936.57
2017-07-09T00:05:31.619Z,936.6
2017-07-09T00:05:45.058Z,936.59
2017-07-09T00:05:58.491Z,936.57
2017-07-09T00:06:11.932Z,936.6
2017-07-09T00:06:25.403Z,936.61
2017-07-09T00:06:38.334Z,936.55
2017-07-09T00:06:51.758Z,936.58
2017-07-09T00:07:04.101Z,936.58
2017-07-09T00:07:16.518Z,936.59
2017-07-09T00:07:29.467Z,936.6
2017-07-09T00:07:41.899Z,936.58
2017-07-09T00:07:54.303Z,936.62
2017-07-09T00:08:07.728Z,936.62
2017-07-09T00:08:20.641Z,936.6
2017-07-09T00:08:33.578Z,936.62
2017-07-09T00:08:47.232Z,936.6
2017-07-09T00:09:00.153Z,936.61
2017-07-09T00:09:13.058Z,936.58
2017-07-09T00:09:25.989Z,936.58
2017-07-09T00:09:39.416Z,936.57
2017-07-09T00:09:52.973Z,936.55
2017-07-09T00:10:06.419Z,936.59
2017-07-09T00:10:19.823Z,936.57
2017-07-09T00:10:33.258Z,936.59
2017-07-09T00:10:46.208Z,936.57
2017-07-09T00:10:59.683Z,936.56
2017-07-09T00:11:12.629Z,936.56
2017-07-09T00:11:25.577Z,936.58
2017-07-09T00:11:38.996Z,936.55
2017-07-09T00:11:52.008Z,936.55
2017-07-09T00:12:05.485Z,936.55
2017-07-09T00:12:18.985Z,936.51
2017-07-09T00:12:32.384Z,936.52
2017-07-09T00:12:45.872Z,936.53
2017-07-09T00:12:58.247Z,936.54
2017-07-09T00:13:11.760Z,936.51
2017-07-09T00:13:25.214Z,936.57
2017-07-09T00:13:38.129Z,936.57
2017-07-09T00:13:51.054Z,936.53
2017-07-09T00:14:03.968Z,936.51
2017-07-09T00:14:16.881Z,936.54
2017-07-09T00:14:29.793Z,936.5
2017-07-09T00:14:43.272Z,936.54
2017-07-09T00:14:56.698Z,936.54
2017-07-09T00:15:10.145Z,936.56
2017-07-09T00:15:22.998Z,936.55
2017-07-09T00:15:36.485Z,936.55
2017-07-09T00:15:49.411Z,936.54
2017-07-09T00:16:02.843Z,936.57
2017-07-09T00:16:15.755Z,936.54
2017-07-09T00:16:29.271Z,936.54
2017-07-09T00:16:42.721Z,936.56
2017-07-09T00:16:55.637Z,936.58
2017-07-09T00:17:08.596Z,936.59
2017-07-09T00:17:21.585Z,936.57
2017-07-09T00:17:33.958Z,936.59
2017-07-09T00:17:47.376Z,936.6
2017-07-09T00:18:00.796Z,936.59
2017-07-09T00:18:13.738Z,936.62
2017-07-09T00:18:26.642Z,936.62
2017-07-09T00:18:39.040Z,936.61
2017-07-09T00:18:52.468Z,936.63
2017-07-09T00:19:04.891Z,936.65
2017-07-09T00:19:17.339Z,936.6
2017-07-09T00:19:30.319Z,936.63
2017-07-09T00:19:43.265Z,936.6
2017-07-09T00:19:56.704Z,936.62
2017-07-09T00:20:08.029Z,936.63
2017-07-09T00:20:21.013Z,936.64
2017-07-09T00:20:33.951Z,936.59
2017-07-09T00:20:47.455Z,936.59
2017-07-09T00:21:00.976Z,936.6
2017-07-09T00:21:13.899Z,936.61
2017-07-09T00:21:27.345Z,936.58
2017-07-09T00:21:40.254Z,936.59
2017-07-09T00:21:52.619Z,936.59
2017-07-09T00:22:05.533Z,936.58
2017-07-09T00:22:18.460Z,936.58
2017-07-09T00:22:30.303Z,936.56
2017-07-09T00:22:43.255Z,936.58
2017-07-09T00:22:56.187Z,936.57
2017-07-09T00:23:06.970Z,936.54
2017-07-09T00:23:18.320Z,936.54
2017-07-09T00:23:30.661Z,936.54
2017-07-09T00:23:43.048Z,936.56
2017-07-09T00:23:54.974Z,936.58
2017-07-09T00:24:07.350Z,936.56
2017-07-09T00:24:20.359Z,936.55
2017-07-09T00:24:33.326Z,936.56
2017-07-09T00:24:46.743Z,936.56
2017-07-09T00:24:59.714Z,936.58
2017-07-09T00:25:13.177Z,936.56
2017-07-09T00:25:26.119Z,936.55
2017-07-09T00:25:39.070Z,936.57
2017-07-09T00:25:52.458Z,936.58
2017-07-09T00:26:05.884Z,936.57
2017-07-09T00:26:19.374Z,936.58
2017-07-09T00:26:32.793Z,936.56
2017-07-09T00:26:46.216Z,936.56
2017-07-09T00:26:59.616Z,936.56
2017-07-09T00:27:13.055Z,936.59
2017-07-09T00:27:25.973Z,936.58
2017-07-09T00:27:38.903Z,936.57
2017-07-09T00:27:52.368Z,936.56
2017-07-09T00:28:05.828Z,936.58
2017-07-09T00:28:18.758Z,936.58
2017-07-09T00:28:31.695Z,936.61
2017-07-09T00:28:44.590Z,936.6
2017-07-09T00:28:58.241Z,936.59
2017-07-09T00:29:11.673Z,936.62
2017-07-09T00:29:24.628Z,936.62
2017-07-09T00:29:36.465Z,936.59
2017-07-09T00:29:49.880Z,936.59
2017-07-09T00:30:02.829Z,936.64
2017-07-09T00:30:16.279Z,936.62
2017-07-09T00:30:29.205Z,936.6
2017-07-09T00:30:42.094Z,936.58
2017-07-09T00:30:55.005Z,936.62
2017-07-09T00:31:08.483Z,936.62
2017-07-09T00:31:22.210Z,936.62
2017-07-09T00:31:35.165Z,936.61
2017-07-09T00:31:48.057Z,936.6
2017-07-09T00:32:01.457Z,936.57
2017-07-09T00:32:14.389Z,936.57
2017-07-09T00:32:27.845Z,936.57
2017-07-09T00:32:40.724Z,936.58
2017-07-09T00:32:53.670Z,936.55
2017-07-09T00:33:06.569Z,936.59
2017-07-09T00:33:20.016Z,936.59
2017-07-09T00:33:33.422Z,936.59
2017-07-09T00:33:46.866Z,936.56
2017-07-09T00:34:00.515Z,936.57
2017-07-09T00:34:13.431Z,936.58
2017-07-09T00:34:26.854Z,936.56
2017-07-09T00:34:39.861Z,936.58
2017-07-09T00:34:53.280Z,936.57
2017-07-09T00:35:06.191Z,936.57
2017-07-09T00:35:19.115Z,936.58
2017-07-09T00:35:32.681Z,936.58
2017-07-09T00:35:45.647Z,936.59
2017-07-09T00:35:59.160Z,936.59
2017-07-09T00:36:12.623Z,936.59
2017-07-09T00:36:26.088Z,936.59
2017-07-09T00:36:39.495Z,936.6
2017-07-09T00:36:53.029Z,936.61
2017-07-09T00:37:06.487Z,936.6
2017-07-09T00:37:19.354Z,936.59
2017-07-09T00:37:31.720Z,936.57
2017-07-09T00:37:44.723Z,936.56
2017-07-09T00:37:58.193Z,936.59
2017-07-09T00:38:11.056Z,936.62
2017-07-09T00:38:24.495Z,936.6
2017-07-09T00:38:37.930Z,936.59
2017-07-09T00:38:51.422Z,936.59
2017-07-09T00:39:05.633Z,936.55
2017-07-09T00:39:19.142Z,936.59
2017-07-09T00:39:32.567Z,936.59
2017-07-09T00:39:46.047Z,936.57
2017-07-09T00:39:59.500Z,936.57
2017-07-09T00:40:12.461Z,936.61
2017-07-09T00:40:25.923Z,936.6
2017-07-09T00:40:39.438Z,936.63
2017-07-09T00:40:52.919Z,936.59
2017-07-09T00:41:06.359Z,936.61
2017-07-09T00:41:19.810Z,936.62
2017-07-09T00:41:33.252Z,936.62
2017-07-09T00:41:45.663Z,936.61
2017-07-09T00:41:58.578Z,936.62
2017-07-09T00:42:11.553Z,936.64
2017-07-09T00:42:23.415Z,936.63
2017-07-09T00:42:35.819Z,936.65
2017-07-09T00:42:49.313Z,936.62
2017-07-09T00:43:02.274Z,936.64
2017-07-09T00:43:15.204Z,936.64
2017-07-09T00:43:28.763Z,936.67
2017-07-09T00:43:42.220Z,936.7
2017-07-09T00:43:54.558Z,936.65
2017-07-09T00:44:08.046Z,936.65
2017-07-09T00:44:21.495Z,936.67
2017-07-09T00:44:34.935Z,936.71
2017-07-09T00:44:47.830Z,936.68
2017-07-09T00:45:00.238Z,936.68
2017-07-09T00:45:13.158Z,936.66
2017-07-09T00:45:26.162Z,936.67
2017-07-09T00:45:39.094Z,936.67
2017-07-09T00:45:52.512Z,936.67
2017-07-09T00:46:05.927Z,936.64
2017-07-09T00:46:19.410Z,936.66
2017-07-09T00:46:32.845Z,936.67
2017-07-09T00:46:46.305Z,936.67
2017-07-09T00:46:58.644Z,936.68
2017-07-09T00:47:11.567Z,936.67
2017-07-09T00:47:24.580Z,936.69
2017-07-09T00:47:37.008Z,936.71
2017-07-09T00:47:50.479Z,936.66
2017-07-09T00:48:03.436Z,936.65
2017-07-09T00:48:16.840Z,936.68
2017-07-09T00:48:30.308Z,936.65
2017-07-09T00:48:43.214Z,936.67
2017-07-09T00:48:56.695Z,936.68
2017-07-09T00:49:10.195Z,936.69
2017-07-09T00:49:23.220Z,936.68
2017-07-09T00:49:36.714Z,936.67
2017-07-09T00:49:50.210Z,936.67
2017-07-09T00:50:03.692Z,936.67
2017-07-09T00:50:16.628Z,936.65
2017-07-09T00:50:29.586Z,936.66
2017-07-09T00:50:43.019Z,936.63
2017-07-09T00:50:55.999Z,936.65
2017-07-09T00:51:08.352Z,936.64
2017-07-09T00:51:21.801Z,936.64
2017-07-09T00:51:34.708Z,936.64
2017-07-09T00:51:47.638Z,936.63
2017-07-09T00:52:00.579Z,936.65
2017-07-09T00:52:14.061Z,936.63
2017-07-09T00:52:27.533Z,936.62
2017-07-09T00:52:40.973Z,936.62
2017-07-09T00:52:54.405Z,936.6
2017-07-09T00:53:07.366Z,936.62
2017-07-09T00:53:20.877Z,936.61
2017-07-09T00:53:33.808Z,936.63
2017-07-09T00:53:47.250Z,936.62
2017-07-09T00:54:00.159Z,936.59
2017-07-09T00:54:13.063Z,936.61
2017-07-09T00:54:26.498Z,936.6
2017-07-09T00:54:39.952Z,936.61
2017-07-09T00:54:53.354Z,936.61
2017-07-09T00:55:06.308Z,936.63
2017-07-09T00:55:19.774Z,936.62
2017-07-09T00:55:33.207Z,936.61
2017-07-09T00:55:46.089Z,936.61
2017-07-09T00:55:59.538Z,936.62
2017-07-09T00:56:12.991Z,936.6
2017-07-09T00:56:26.445Z,936.64
2017-07-09T00:56:39.838Z,936.64
2017-07-09T00:56:53.363Z,936.65
2017-07-09T00:57:06.352Z,936.64
2017-07-09T00:57:19.360Z,936.62
2017-07-09T00:57:32.338Z,936.65
2017-07-09T00:57:45.749Z,936.67
2017-07-09T00:57:58.103Z,936.68
2017-07-09T00:58:11.005Z,936.67
2017-07-09T00:58:24.476Z,936.66
2017-07-09T00:58:37.955Z,936.66
2017-07-09T00:58:51.440Z,936.66
2017-07-09T00:59:04.327Z,936.68
2017-07-09T00:59:17.211Z,936.65
2017-07-09T00:59:30.658Z,936.67
2017-07-09T00:59:44.156Z,936.68
2017-07-09T00:59:57.033Z,936.67
2017-07-09T01:00:09.448Z,936.67
2017-07-09T01:00:22.370Z,936.65
2017-07-09T01:00:35.343Z,936.66
2017-07-09T01:00:48.770Z,936.66
2017-07-09T01:01:01.648Z,936.62
2017-07-09T01:01:14.587Z,936.61
2017-07-09T01:01:27.443Z,936.66
2017-07-09T01:01:40.908Z,936.65
2017-07-09T01:01:54.291Z,936.63
2017-07-09T01:02:07.216Z,936.64
2017-07-09T01:02:20.600Z,936.64
2017-07-09T01:02:33.498Z,936.63
2017-07-09T01:02:46.925Z,936.63
2017-07-09T01:03:00.339Z,936.64
2017-07-09T01:03:13.766Z,936.61
2017-07-09T01:03:26.725Z,936.62
2017-07-09T01:03:39.632Z,936.63
2017-07-09T01:03:52.018Z,936.65
2017-07-09T01:04:05.483Z,936.63
2017-07-09T01:04:18.411Z,936.63
2017-07-09T01:04:31.827Z,936.65
2017-07-09T01:04:45.234Z,936.62
2017-07-09T01:04:58.189Z,936.62
2017-07-09T01:05:10.558Z,936.64
2017-07-09T01:05:22.932Z,936.63
2017-07-09T01:05:36.363Z,936.6
2017-07-09T01:05:49.787Z,936.62
2017-07-09T01:06:03.295Z,936.61
2017-07-09T01:06:15.670Z,936.62
2017-07-09T01:06:28.594Z,936.6
2017-07-09T01:06:42.029Z,936.61
2017-07-09T01:06:54.892Z,936.62
2017-07-09T01:07:07.285Z,936.62
2017-07-09T01:07:20.744Z,936.62
2017-07-09T01:07:33.745Z,936.59
2017-07-09T01:07:46.702Z,936.62
2017-07-09T01:08:00.172Z,936.61
2017-07-09T01:08:12.556Z,936.59
2017-07-09T01:08:24.909Z,936.66
2017-07-09T01:08:36.216Z,936.62
2017-07-09T01:08:49.138Z,936.63
2017-07-09T01:09:02.582Z,936.6
2017-07-09T01:09:16.408Z,936.63
2017-07-09T01:09:29.901Z,936.64
2017-07-09T01:09:43.385Z,936.63
2017-07-09T01:09:56.792Z,936.62
2017-07-09T01:10:10.221Z,936.67
2017-07-09T01:10:23.644Z,936.66
2017-07-09T01:10:37.168Z,936.65
2017-07-09T01:10:50.049Z,936.65
2017-07-09T01:11:02.458Z,936.66
2017-07-09T01:11:15.417Z,936.64
2017-07-09T01:11:28.880Z,936.66
2017-07-09T01:11:42.362Z,936.66
2017-07-09T01:11:55.326Z,936.64
2017-07-09T01:12:08.823Z,936.66
2017-07-09T01:12:21.722Z,936.67
2017-07-09T01:12:34.683Z,936.64
2017-07-09T01:12:47.568Z,936.63
2017-07-09T01:12:59.400Z,936.63
2017-07-09T01:13:12.895Z,936.63
2017-07-09T01:13:25.256Z,936.64
2017-07-09T01:13:38.697Z,936.62
2017-07-09T01:13:52.141Z,936.65
2017-07-09T01:14:05.617Z,936.65
2017-07-09T01:14:19.088Z,936.64
2017-07-09T01:14:31.987Z,936.63
2017-07-09T01:14:44.906Z,936.65
2017-07-09T01:14:58.376Z,936.64
2017-07-09T01:15:10.820Z,936.64
2017-07-09T01:15:23.276Z,936.66
2017-07-09T01:15:36.207Z,936.65
2017-07-09T01:15:49.111Z,936.64
2017-07-09T01:16:02.017Z,936.64
2017-07-09T01:16:15.515Z,936.65
2017-07-09T01:16:28.953Z,936.61
2017-07-09T01:16:42.446Z,936.64
2017-07-09T01:16:55.942Z,936.65
2017-07-09T01:17:08.839Z,936.61
2017-07-09T01:17:22.338Z,936.6
2017-07-09T01:17:35.768Z,936.61
2017-07-09T01:17:49.246Z,936.59
2017-07-09T01:18:02.146Z,936.62
2017-07-09T01:18:15.610Z,936.61
2017-07-09T01:18:28.030Z,936.62
2017-07-09T01:18:40.433Z,936.63
2017-07-09T01:18:53.868Z,936.62
2017-07-09T01:19:06.740Z,936.6
2017-07-09T01:19:20.246Z,936.63
2017-07-09T01:19:33.720Z,936.62
2017-07-09T01:19:47.155Z,936.6
2017-07-09T01:20:00.120Z,936.61
2017-07-09T01:20:13.087Z,936.62
2017-07-09T01:20:26.500Z,936.61
2017-07-09T01:20:39.439Z,936.64
2017-07-09T01:20:51.848Z,936.62
2017-07-09T01:21:05.338Z,936.61
2017-07-09T01:21:18.783Z,936.62
2017-07-09T01:21:32.191Z,936.61
2017-07-09T01:21:45.683Z,936.58
2017-07-09T01:21:58.067Z,936.62
2017-07-09T01:22:09.919Z,936.6
2017-07-09T01:22:21.835Z,936.58
2017-07-09T01:22:33.671Z,936.63
2017-07-09T01:22:46.125Z,936.64
2017-07-09T01:22:59.081Z,936.62
2017-07-09T01:23:10.959Z,936.63
2017-07-09T01:23:22.250Z,936.62
2017-07-09T01:23:35.137Z,936.62
2017-07-09T01:23:48.594Z,936.61
2017-07-09T01:24:01.521Z,936.61
2017-07-09T01:24:15.899Z,936.6
2017-07-09T01:24:29.320Z,936.64
2017-07-09T01:24:42.262Z,936.62
2017-07-09T01:24:55.783Z,936.6
2017-07-09T01:25:09.228Z,936.61
2017-07-09T01:25:22.681Z,936.62
2017-07-09T01:25:35.574Z,936.61
2017-07-09T01:25:49.034Z,936.6
2017-07-09T01:26:01.349Z,936.6
2017-07-09T01:26:14.818Z,936.61
2017-07-09T01:26:28.316Z,936.57
2017-07-09T01:26:41.780Z,936.59
2017-07-09T01:26:55.259Z,936.62
2017-07-09T01:27:08.170Z,936.58
2017-07-09T01:27:21.632Z,936.61
2017-07-09T01:27:35.060Z,936.61
2017-07-09T01:27:48.573Z,936.61
2017-07-09T01:28:00.974Z,936.6
2017-07-09T01:28:14.394Z,936.61
2017-07-09T01:28:27.299Z,936.59
2017-07-09T01:28:40.685Z,936.6
2017-07-09T01:28:54.172Z,936.62
2017-07-09T01:29:07.839Z,936.63
2017-07-09T01:29:20.976Z,936.62
2017-07-09T01:29:33.960Z,936.63
2017-07-09T01:29:47.432Z,936.61
2017-07-09T01:30:00.890Z,936.62
2017-07-09T01:30:13.843Z,936.6
2017-07-09T01:30:26.760Z,936.62
2017-07-09T01:30:39.712Z,936.65
2017-07-09T01:30:53.197Z,936.64
2017-07-09T01:31:06.132Z,936.66
2017-07-09T01:31:19.639Z,936.6
2017-07-09T01:31:33.083Z,936.67
2017-07-09T01:31:46.535Z,936.67
2017-07-09T01:32:00.014Z,936.7
2017-07-09T01:32:13.476Z,936.68
2017-07-09T01:32:26.848Z,936.7
2017-07-09T01:32:39.251Z,936.71
2017-07-09T01:32:52.177Z,936.72
2017-07-09T01:33:05.696Z,936.72
2017-07-09T01:33:19.099Z,936.76
2017-07-09T01:33:32.570Z,936.74
2017-07-09T01:33:44.982Z,936.74
2017-07-09T01:33:58.493Z,936.75
2017-07-09T01:34:11.404Z,936.74
2017-07-09T01:34:25.104Z,936.75
2017-07-09T01:34:37.993Z,936.76
2017-07-09T01:34:50.391Z,936.78
2017-07-09T01:35:03.332Z,936.73
2017-07-09T01:35:16.226Z,936.77
2017-07-09T01:35:29.152Z,936.76
2017-07-09T01:35:41.051Z,936.76
2017-07-09T01:35:54.541Z,936.76
2017-07-09T01:36:07.969Z,936.75
2017-07-09T01:36:21.480Z,936.77
2017-07-09T01:36:34.903Z,936.79
2017-07-09T01:36:47.732Z,936.77
2017-07-09T01:37:01.166Z,936.74
2017-07-09T01:37:14.622Z,936.8
2017-07-09T01:37:27.008Z,936.75
2017-07-09T01:37:40.439Z,936.75
2017-07-09T01:37:53.316Z,936.77
2017-07-09T01:38:06.807Z,936.75
2017-07-09T01:38:20.255Z,936.74
2017-07-09T01:38:33.712Z,936.71
2017-07-09T01:38:46.110Z,936.73
2017-07-09T01:38:59.572Z,936.72
2017-07-09T01:39:10.900Z,936.73
2017-07-09T01:39:24.633Z,936.77
2017-07-09T01:39:38.104Z,936.76
2017-07-09T01:39:51.024Z,936.74
2017-07-09T01:40:03.433Z,936.7
2017-07-09T01:40:16.351Z,936.77
2017-07-09T01:40:28.714Z,936.74
2017-07-09T01:40:41.637Z,936.76
2017-07-09T01:40:55.129Z,936.75
2017-07-09T01:41:08.511Z,936.78
2017-07-09T01:41:21.417Z,936.76
2017-07-09T01:41:34.873Z,936.77
2017-07-09T01:41:48.320Z,936.78
2017-07-09T01:42:01.201Z,936.78
2017-07-09T01:42:14.134Z,936.74
2017-07-09T01:42:27.070Z,936.78
2017-07-09T01:42:39.956Z,936.77
2017-07-09T01:42:53.402Z,936.79
2017-07-09T01:43:06.799Z,936.8
2017-07-09T01:43:20.260Z,936.78
2017-07-09T01:43:33.710Z,936.78
2017-07-09T01:43:47.146Z,936.81
2017-07-09T01:44:00.050Z,936.78
2017-07-09T01:44:13.479Z,936.77
2017-07-09T01:44:26.963Z,936.8
2017-07-09T01:44:40.477Z,936.83
2017-07-09T01:44:53.946Z,936.83
2017-07-09T01:45:06.859Z,936.77
2017-07-09T01:45:19.756Z,936.79
2017-07-09T01:45:33.276Z,936.82
2017-07-09T01:45:46.197Z,936.81
2017-07-09T01:45:59.656Z,936.82
2017-07-09T01:46:13.093Z,936.8
2017-07-09T01:46:25.449Z,936.8
2017-07-09T01:46:38.945Z,936.83
2017-07-09T01:46:51.887Z,936.84
2017-07-09T01:47:04.225Z,936.84
2017-07-09T01:47:17.100Z,936.81
2017-07-09T01:47:30.473Z,936.83
2017-07-09T01:47:43.874Z,936.83
2017-07-09T01:47:56.775Z,936.83
2017-07-09T01:48:09.692Z,936.8
2017-07-09T01:48:22.622Z,936.82
2017-07-09T01:48:36.122Z,936.86
2017-07-09T01:48:49.546Z,936.86
2017-07-09T01:49:02.508Z,936.82
2017-07-09T01:49:15.933Z,936.82
2017-07-09T01:49:28.888Z,936.84
2017-07-09T01:49:41.828Z,936.86
2017-07-09T01:49:54.818Z,936.85
2017-07-09T01:50:08.274Z,936.86
2017-07-09T01:50:21.251Z,936.83
2017-07-09T01:50:34.768Z,936.87
2017-07-09T01:50:48.239Z,936.87
2017-07-09T01:51:01.666Z,936.85
2017-07-09T01:51:14.639Z,936.88
2017-07-09T01:51:27.597Z,936.88
2017-07-09T01:51:41.007Z,936.86
2017-07-09T01:51:54.413Z,936.85
2017-07-09T01:52:06.813Z,936.84
2017-07-09T01:52:19.781Z,936.87
2017-07-09T01:52:33.224Z,936.88
2017-07-09T01:52:46.663Z,936.86
2017-07-09T01:52:59.576Z,936.91
2017-07-09T01:53:13.015Z,936.87
2017-07-09T01:53:26.490Z,936.89
2017-07-09T01:53:39.421Z,936.88
2017-07-09T01:53:51.800Z,936.86
2017-07-09T01:54:04.190Z,936.86
2017-07-09T01:54:16.641Z,936.86
2017-07-09T01:54:29.879Z,936.87
2017-07-09T01:54:42.828Z,936.85
2017-07-09T01:54:56.247Z,936.86
2017-07-09T01:55:09.209Z,936.85
2017-07-09T01:55:22.686Z,936.86
2017-07-09T01:55:35.612Z,936.82
2017-07-09T01:55:48.595Z,936.85
2017-07-09T01:56:02.091Z,936.87
2017-07-09T01:56:15.539Z,936.85
2017-07-09T01:56:29.090Z,936.83
2017-07-09T01:56:41.453Z,936.83
2017-07-09T01:56:54.978Z,936.83
2017-07-09T01:57:08.482Z,936.82
2017-07-09T01:57:21.919Z,936.86
2017-07-09T01:57:34.286Z,936.86
2017-07-09T01:57:47.151Z,936.83
2017-07-09T01:58:00.648Z,936.84
2017-07-09T01:58:14.097Z,936.86
2017-07-09T01:58:27.585Z,936.81
2017-07-09T01:58:40.538Z,936.81
2017-07-09T01:58:53.434Z,936.83
2017-07-09T01:59:06.289Z,936.81
2017-07-09T01:59:19.778Z,936.8
2017-07-09T01:59:32.208Z,936.83
2017-07-09T01:59:45.118Z,936.83
2017-07-09T01:59:58.594Z,936.82
2017-07-09T02:00:11.477Z,936.82
2017-07-09T02:00:23.844Z,936.8
2017-07-09T02:00:36.745Z,936.83
2017-07-09T02:00:50.180Z,936.85
2017-07-09T02:01:03.124Z,936.81
2017-07-09T02:01:15.517Z,936.84
2017-07-09T02:01:28.939Z,936.81
2017-07-09T02:01:41.844Z,936.8
2017-07-09T02:01:55.298Z,936.83
2017-07-09T02:02:08.712Z,936.8
2017-07-09T02:02:22.203Z,936.83
2017-07-09T02:02:35.086Z,936.82
2017-07-09T02:02:48.487Z,936.81
2017-07-09T02:03:01.967Z,936.75
2017-07-09T02:03:13.800Z,936.81
2017-07-09T02:03:26.729Z,936.77
2017-07-09T02:03:40.212Z,936.8
2017-07-09T02:03:53.670Z,936.81
2017-07-09T02:04:06.538Z,936.82
2017-07-09T02:04:19.997Z,936.8
2017-07-09T02:04:33.506Z,936.79
2017-07-09T02:04:46.919Z,936.81
2017-07-09T02:05:00.328Z,936.78
2017-07-09T02:05:13.261Z,936.78
2017-07-09T02:05:26.704Z,936.78
2017-07-09T02:05:40.115Z,936.78
2017-07-09T02:05:52.537Z,936.78
2017-07-09T02:06:05.990Z,936.81
2017-07-09T02:06:19.449Z,936.79
2017-07-09T02:06:31.822Z,936.79
2017-07-09T02:06:44.209Z,936.78
2017-07-09T02:06:57.633Z,936.81
2017-07-09T02:07:11.107Z,936.81
2017-07-09T02:07:23.514Z,936.77
2017-07-09T02:07:36.969Z,936.82
2017-07-09T02:07:50.403Z,936.78
2017-07-09T02:08:03.391Z,936.8
2017-07-09T02:08:15.764Z,936.78
2017-07-09T02:08:28.677Z,936.82
2017-07-09T02:08:42.153Z,936.81
2017-07-09T02:08:55.032Z,936.78
2017-07-09T02:09:08.545Z,936.8
2017-07-09T02:09:21.966Z,936.8
2017-07-09T02:09:36.291Z,936.81
2017-07-09T02:09:49.741Z,936.8
2017-07-09T02:10:03.196Z,936.78
2017-07-09T02:10:16.705Z,936.82
2017-07-09T02:10:30.124Z,936.84
2017-07-09T02:10:43.011Z,936.79
2017-07-09T02:10:56.534Z,936.79
2017-07-09T02:11:09.432Z,936.8
2017-07-09T02:11:22.929Z,936.77
2017-07-09T02:11:36.382Z,936.78
2017-07-09T02:11:49.839Z,936.8
2017-07-09T02:12:03.339Z,936.78
2017-07-09T02:12:16.265Z,936.78
2017-07-09T02:12:29.214Z,936.82
2017-07-09T02:12:42.780Z,936.77
2017-07-09T02:12:56.282Z,936.77
2017-07-09T02:13:09.738Z,936.79
2017-07-09T02:13:23.212Z,936.77
2017-07-09T02:13:36.682Z,936.79
2017-07-09T02:13:50.142Z,936.82
2017-07-09T02:14:03.589Z,936.79
2017-07-09T02:14:16.586Z,936.79
2017-07-09T02:14:29.522Z,936.79
2017-07-09T02:14:43.304Z,936.75
2017-07-09T02:14:56.751Z,936.8
2017-07-09T02:15:09.155Z,936.78
2017-07-09T02:15:22.572Z,936.76
2017-07-09T02:15:35.971Z,936.79
2017-07-09T02:15:49.428Z,936.77
2017-07-09T02:16:02.344Z,936.79
2017-07-09T02:16:15.836Z,936.8
2017-07-09T02:16:28.748Z,936.77
2017-07-09T02:16:41.217Z,936.76
2017-07-09T02:16:54.639Z,936.76
2017-07-09T02:17:08.056Z,936.77
2017-07-09T02:17:21.567Z,936.77
2017-07-09T02:17:34.987Z,936.75
2017-07-09T02:17:48.426Z,936.73
2017-07-09T02:18:01.888Z,936.75
2017-07-09T02:18:14.781Z,936.75
2017-07-09T02:18:28.253Z,936.76
2017-07-09T02:18:41.201Z,936.77
2017-07-09T02:18:54.675Z,936.72
2017-07-09T02:19:08.106Z,936.76
2017-07-09T02:19:20.471Z,936.73
2017-07-09T02:19:33.910Z,936.74
2017-07-09T02:19:47.304Z,936.74
2017-07-09T02:20:00.738Z,936.77
2017-07-09T02:20:14.206Z,936.74
2017-07-09T02:20:27.615Z,936.77
2017-07-09T02:20:39.485Z,936.73
2017-07-09T02:20:52.970Z,936.76
2017-07-09T02:21:06.456Z,936.78
2017-07-09T02:21:19.385Z,936.78
2017-07-09T02:21:32.836Z,936.75
2017-07-09T02:21:46.245Z,936.75
2017-07-09T02:21:59.713Z,936.74
2017-07-09T02:22:11.532Z,936.73
2017-07-09T02:22:23.886Z,936.7
2017-07-09T02:22:36.804Z,936.71
2017-07-09T02:22:48.634Z,936.72
2017-07-09T02:23:01.002Z,936.74
2017-07-09T02:23:12.303Z,936.73
2017-07-09T02:23:24.153Z,936.71
2017-07-09T02:23:36.519Z,936.7
2017-07-09T02:23:49.443Z,936.72
2017-07-09T02:24:01.758Z,936.72
2017-07-09T02:24:14.683Z,936.69
2017-07-09T02:24:27.656Z,936.76
2017-07-09T02:24:41.125Z,936.73
2017-07-09T02:24:54.577Z,936.76
2017-07-09T02:25:06.410Z,936.73
2017-07-09T02:25:20.072Z,936.76
2017-07-09T02:25:32.978Z,936.76
2017-07-09T02:25:46.433Z,936.79
2017-07-09T02:25:58.792Z,936.73
2017-07-09T02:26:11.685Z,936.75
2017-07-09T02:26:24.602Z,936.72
2017-07-09T02:26:38.073Z,936.74
2017-07-09T02:26:51.523Z,936.75
2017-07-09T02:27:03.376Z,936.73
2017-07-09T02:27:16.278Z,936.74
2017-07-09T02:27:29.732Z,936.76
2017-07-09T02:27:42.132Z,936.74
2017-07-09T02:27:55.009Z,936.76
2017-07-09T02:28:07.996Z,936.73
2017-07-09T02:28:21.489Z,936.75
2017-07-09T02:28:34.435Z,936.74
2017-07-09T02:28:47.406Z,936.74
2017-07-09T02:29:00.355Z,936.74
2017-07-09T02:29:13.297Z,936.73
2017-07-09T02:29:26.729Z,936.75
2017-07-09T02:29:40.218Z,936.75
2017-07-09T02:29:53.677Z,936.74
2017-07-09T02:30:06.041Z,936.75
2017-07-09T02:30:18.476Z,936.77
2017-07-09T02:30:31.417Z,936.76
2017-07-09T02:30:44.339Z,936.74
2017-07-09T02:30:56.730Z,936.7
2017-07-09T02:31:09.083Z,936.75
2017-07-09T02:31:22.015Z,936.74
2017-07-09T02:31:34.886Z,936.74
2017-07-09T02:31:47.248Z,936.73
2017-07-09T02:32:00.725Z,936.71
2017-07-09T02:32:13.684Z,936.73
2017-07-09T02:32:26.062Z,936.72
2017-07-09T02:32:39.549Z,936.7
2017-07-09T02:32:51.930Z,936.76
2017-07-09T02:33:05.353Z,936.74
2017-07-09T02:33:17.710Z,936.71
2017-07-09T02:33:31.116Z,936.71
2017-07-09T02:33:44.589Z,936.72
2017-07-09T02:33:58.027Z,936.71
2017-07-09T02:34:10.371Z,936.72
2017-07-09T02:34:22.744Z,936.67
2017-07-09T02:34:35.637Z,936.7
2017-07-09T02:34:49.099Z,936.7
2017-07-09T02:35:02.506Z,936.65
2017-07-09T02:35:16.011Z,936.66
2017-07-09T02:35:28.968Z,936.65
2017-07-09T02:35:41.847Z,936.65
2017-07-09T02:35:54.201Z,936.63
2017-07-09T02:36:07.155Z,936.65
2017-07-09T02:36:20.598Z,936.65
2017-07-09T02:36:33.549Z,936.63
2017-07-09T02:36:46.465Z,936.62
2017-07-09T02:36:59.940Z,936.66
2017-07-09T02:37:13.446Z,936.64
2017-07-09T02:37:26.891Z,936.68
2017-07-09T02:37:39.797Z,936.69
2017-07-09T02:37:53.304Z,936.65
2017-07-09T02:38:05.718Z,936.67
2017-07-09T02:38:19.211Z,936.7
2017-07-09T02:38:32.174Z,936.68
2017-07-09T02:38:45.124Z,936.65
2017-07-09T02:38:57.525Z,936.67
2017-07-09T02:39:09.956Z,936.66
2017-07-09T02:39:22.336Z,936.64
2017-07-09T02:39:35.764Z,936.69
2017-07-09T02:39:48.649Z,936.66
2017-07-09T02:40:02.101Z,936.63
2017-07-09T02:40:25.870Z,936.65
2017-07-09T02:40:38.785Z,936.65
2017-07-09T02:40:52.276Z,936.62
2017-07-09T02:41:05.169Z,936.63
2017-07-09T02:41:18.629Z,936.62
2017-07-09T02:41:32.147Z,936.61
2017-07-09T02:41:45.082Z,936.64
2017-07-09T02:41:57.984Z,936.61
2017-07-09T02:42:11.394Z,936.59
2017-07-09T02:42:23.237Z,936.61
2017-07-09T02:42:36.690Z,936.61
2017-07-09T02:42:49.099Z,936.63
2017-07-09T02:43:01.532Z,936.61
2017-07-09T02:43:15.060Z,936.61
2017-07-09T02:43:28.513Z,936.61
2017-07-09T02:43:41.403Z,936.6
2017-07-09T02:43:54.338Z,936.62